sensor_id;sensor_type;location;lat;lon;timestamp;P1;durP1;ratioP1;P2;durP2;ratioP2
40198;SDS011;25906;43.536;26.068;2023-05-29T00:00:01;13.60;;;6.82;;
40198;SDS011;25906;43.536;26.068;2023-05-29T00:02:51;11.60;;;6.63;;
40198;SDS011;25906;43.536;26.068;2023-05-29T00:05:37;11.60;;;8.27;;
40198;SDS011;25906;43.536;26.068;2023-05-29T00:08:22;10.40;;;7.82;;
40198;SDS011;25906;43.536;26.068;2023-05-29T00:11:08;13.65;;;8.23;;
40198;SDS011;25906;43.536;26.068;2023-05-29T00:13:53;11.35;;;7.80;;
40198;SDS011;25906;43.536;26.068;2023-05-29T00:16:39;13.18;;;8.93;;
40198;SDS011;25906;43.536;26.068;2023-05-29T00:19:24;15.27;;;8.73;;
40198;SDS011;25906;43.536;26.068;2023-05-29T00:22:10;13.65;;;8.50;;
40198;SDS011;25906;43.536;26.068;2023-05-29T00:24:55;14.32;;;8.63;;
40198;SDS011;25906;43.536;26.068;2023-05-29T00:27:41;14.15;;;8.43;;
40198;SDS011;25906;43.536;26.068;2023-05-29T00:30:26;14.43;;;9.80;;
40198;SDS011;25906;43.536;26.068;2023-05-29T00:33:12;12.68;;;9.43;;
40198;SDS011;25906;43.536;26.068;2023-05-29T00:35:57;11.25;;;8.43;;
40198;SDS011;25906;43.536;26.068;2023-05-29T00:38:42;12.60;;;9.40;;
40198;SDS011;25906;43.536;26.068;2023-05-29T00:41:28;13.27;;;9.30;;
40198;SDS011;25906;43.536;26.068;2023-05-29T00:44:13;14.77;;;8.88;;
40198;SDS011;25906;43.536;26.068;2023-05-29T00:46:58;15.50;;;9.82;;
40198;SDS011;25906;43.536;26.068;2023-05-29T00:49:44;14.35;;;8.75;;
40198;SDS011;25906;43.536;26.068;2023-05-29T00:52:30;14.02;;;9.00;;
40198;SDS011;25906;43.536;26.068;2023-05-29T00:55:15;13.57;;;9.10;;
40198;SDS011;25906;43.536;26.068;2023-05-29T00:58:01;14.90;;;9.85;;
40198;SDS011;25906;43.536;26.068;2023-05-29T01:00:46;16.95;;;10.13;;
40198;SDS011;25906;43.536;26.068;2023-05-29T01:03:32;16.35;;;9.90;;
40198;SDS011;25906;43.536;26.068;2023-05-29T01:09:04;14.20;;;10.63;;
40198;SDS011;25906;43.536;26.068;2023-05-29T01:12:14;22.35;;;11.13;;
40198;SDS011;25906;43.536;26.068;2023-05-29T01:21:11;16.90;;;9.52;;
40198;SDS011;25906;43.536;26.068;2023-05-29T01:27:43;15.95;;;9.55;;
40198;SDS011;25906;43.536;26.068;2023-05-29T01:30:32;14.70;;;10.00;;
40198;SDS011;25906;43.536;26.068;2023-05-29T01:36:03;21.65;;;10.80;;
40198;SDS011;25906;43.536;26.068;2023-05-29T01:38:49;23.80;;;13.52;;
40198;SDS011;25906;43.536;26.068;2023-05-29T01:41:36;21.83;;;13.88;;
40198;SDS011;25906;43.536;26.068;2023-05-29T01:44:22;20.77;;;13.75;;
40198;SDS011;25906;43.536;26.068;2023-05-29T01:47:09;20.63;;;14.00;;
40198;SDS011;25906;43.536;26.068;2023-05-29T01:49:54;25.73;;;13.52;;
40198;SDS011;25906;43.536;26.068;2023-05-29T01:52:41;20.65;;;12.98;;
40198;SDS011;25906;43.536;26.068;2023-05-29T01:55:26;20.00;;;12.70;;
40198;SDS011;25906;43.536;26.068;2023-05-29T01:58:12;20.55;;;12.43;;
40198;SDS011;25906;43.536;26.068;2023-05-29T02:01:00;21.33;;;12.95;;
40198;SDS011;25906;43.536;26.068;2023-05-29T02:03:48;22.45;;;13.82;;
40198;SDS011;25906;43.536;26.068;2023-05-29T02:06:34;20.73;;;13.40;;
40198;SDS011;25906;43.536;26.068;2023-05-29T02:09:20;27.42;;;15.00;;
40198;SDS011;25906;43.536;26.068;2023-05-29T02:12:07;23.65;;;14.65;;
40198;SDS011;25906;43.536;26.068;2023-05-29T02:14:53;21.10;;;12.77;;
40198;SDS011;25906;43.536;26.068;2023-05-29T02:20:26;19.27;;;12.88;;
40198;SDS011;25906;43.536;26.068;2023-05-29T02:23:12;20.75;;;13.10;;
40198;SDS011;25906;43.536;26.068;2023-05-29T02:25:57;19.35;;;13.20;;
40198;SDS011;25906;43.536;26.068;2023-05-29T02:28:43;26.45;;;13.63;;
40198;SDS011;25906;43.536;26.068;2023-05-29T02:31:28;19.30;;;13.25;;
40198;SDS011;25906;43.536;26.068;2023-05-29T02:34:13;24.20;;;12.48;;
40198;SDS011;25906;43.536;26.068;2023-05-29T02:36:59;22.13;;;12.75;;
40198;SDS011;25906;43.536;26.068;2023-05-29T02:39:46;19.00;;;12.35;;
40198;SDS011;25906;43.536;26.068;2023-05-29T02:42:31;20.70;;;13.43;;
40198;SDS011;25906;43.536;26.068;2023-05-29T02:45:17;21.55;;;13.70;;
40198;SDS011;25906;43.536;26.068;2023-05-29T02:48:02;20.20;;;12.68;;
40198;SDS011;25906;43.536;26.068;2023-05-29T02:50:48;17.88;;;11.80;;
40198;SDS011;25906;43.536;26.068;2023-05-29T02:56:20;17.30;;;9.70;;
40198;SDS011;25906;43.536;26.068;2023-05-29T02:59:08;16.35;;;10.68;;
40198;SDS011;25906;43.536;26.068;2023-05-29T03:01:54;16.65;;;10.68;;
40198;SDS011;25906;43.536;26.068;2023-05-29T03:04:39;17.20;;;11.07;;
40198;SDS011;25906;43.536;26.068;2023-05-29T03:07:25;16.58;;;11.75;;
40198;SDS011;25906;43.536;26.068;2023-05-29T03:10:10;17.70;;;11.20;;
40198;SDS011;25906;43.536;26.068;2023-05-29T03:12:56;18.00;;;11.02;;
40198;SDS011;25906;43.536;26.068;2023-05-29T03:15:41;15.32;;;11.18;;
40198;SDS011;25906;43.536;26.068;2023-05-29T03:18:27;15.77;;;11.18;;
40198;SDS011;25906;43.536;26.068;2023-05-29T03:21:12;16.77;;;10.43;;
40198;SDS011;25906;43.536;26.068;2023-05-29T03:23:59;19.88;;;12.02;;
40198;SDS011;25906;43.536;26.068;2023-05-29T03:26:45;18.85;;;11.15;;
40198;SDS011;25906;43.536;26.068;2023-05-29T03:29:31;16.70;;;10.85;;
40198;SDS011;25906;43.536;26.068;2023-05-29T03:32:17;13.90;;;10.02;;
40198;SDS011;25906;43.536;26.068;2023-05-29T03:35:02;20.52;;;10.55;;
40198;SDS011;25906;43.536;26.068;2023-05-29T03:37:48;17.58;;;10.80;;
40198;SDS011;25906;43.536;26.068;2023-05-29T03:40:34;21.02;;;11.52;;
40198;SDS011;25906;43.536;26.068;2023-05-29T03:43:19;28.63;;;11.35;;
40198;SDS011;25906;43.536;26.068;2023-05-29T03:46:05;19.92;;;12.30;;
40198;SDS011;25906;43.536;26.068;2023-05-29T03:48:50;19.33;;;12.23;;
40198;SDS011;25906;43.536;26.068;2023-05-29T03:51:35;17.45;;;11.65;;
40198;SDS011;25906;43.536;26.068;2023-05-29T03:54:21;15.63;;;10.80;;
40198;SDS011;25906;43.536;26.068;2023-05-29T03:57:06;15.55;;;11.10;;
40198;SDS011;25906;43.536;26.068;2023-05-29T03:59:53;18.67;;;11.32;;
40198;SDS011;25906;43.536;26.068;2023-05-29T04:02:39;16.83;;;11.73;;
40198;SDS011;25906;43.536;26.068;2023-05-29T04:05:25;23.70;;;13.02;;
40198;SDS011;25906;43.536;26.068;2023-05-29T04:08:11;20.83;;;12.23;;
40198;SDS011;25906;43.536;26.068;2023-05-29T04:10:58;18.02;;;12.27;;
40198;SDS011;25906;43.536;26.068;2023-05-29T04:13:43;18.88;;;11.77;;
40198;SDS011;25906;43.536;26.068;2023-05-29T04:16:29;22.02;;;12.05;;
40198;SDS011;25906;43.536;26.068;2023-05-29T04:19:14;17.92;;;12.07;;
40198;SDS011;25906;43.536;26.068;2023-05-29T04:22:00;20.83;;;11.68;;
40198;SDS011;25906;43.536;26.068;2023-05-29T04:24:45;18.52;;;12.05;;
40198;SDS011;25906;43.536;26.068;2023-05-29T04:27:31;19.45;;;11.88;;
40198;SDS011;25906;43.536;26.068;2023-05-29T04:30:22;17.92;;;11.73;;
40198;SDS011;25906;43.536;26.068;2023-05-29T04:33:07;16.83;;;11.25;;
40198;SDS011;25906;43.536;26.068;2023-05-29T04:35:54;19.38;;;11.70;;
40198;SDS011;25906;43.536;26.068;2023-05-29T04:38:40;21.42;;;12.23;;
40198;SDS011;25906;43.536;26.068;2023-05-29T04:41:26;23.38;;;10.75;;
40198;SDS011;25906;43.536;26.068;2023-05-29T04:44:16;18.30;;;11.30;;
40198;SDS011;25906;43.536;26.068;2023-05-29T04:47:01;18.80;;;11.30;;
40198;SDS011;25906;43.536;26.068;2023-05-29T04:49:48;18.70;;;12.45;;
40198;SDS011;25906;43.536;26.068;2023-05-29T04:52:35;16.85;;;11.63;;
40198;SDS011;25906;43.536;26.068;2023-05-29T04:55:22;20.80;;;11.18;;
40198;SDS011;25906;43.536;26.068;2023-05-29T05:00:53;17.80;;;10.77;;
40198;SDS011;25906;43.536;26.068;2023-05-29T05:03:43;19.33;;;11.07;;
40198;SDS011;25906;43.536;26.068;2023-05-29T05:06:28;20.13;;;11.40;;
40198;SDS011;25906;43.536;26.068;2023-05-29T05:09:14;19.80;;;11.25;;
40198;SDS011;25906;43.536;26.068;2023-05-29T05:11:59;21.23;;;11.25;;
40198;SDS011;25906;43.536;26.068;2023-05-29T05:14:46;19.00;;;10.65;;
40198;SDS011;25906;43.536;26.068;2023-05-29T05:17:31;16.67;;;10.68;;
40198;SDS011;25906;43.536;26.068;2023-05-29T05:20:17;19.77;;;11.35;;
40198;SDS011;25906;43.536;26.068;2023-05-29T05:23:02;19.63;;;11.77;;
40198;SDS011;25906;43.536;26.068;2023-05-29T05:25:47;16.05;;;10.77;;
40198;SDS011;25906;43.536;26.068;2023-05-29T05:28:33;19.80;;;10.48;;
40198;SDS011;25906;43.536;26.068;2023-05-29T05:31:19;17.45;;;10.70;;
40198;SDS011;25906;43.536;26.068;2023-05-29T05:34:05;17.95;;;10.50;;
40198;SDS011;25906;43.536;26.068;2023-05-29T05:36:51;17.48;;;10.68;;
40198;SDS011;25906;43.536;26.068;2023-05-29T05:39:36;15.23;;;11.30;;
40198;SDS011;25906;43.536;26.068;2023-05-29T05:42:22;15.52;;;10.18;;
40198;SDS011;25906;43.536;26.068;2023-05-29T05:45:07;16.60;;;10.27;;
40198;SDS011;25906;43.536;26.068;2023-05-29T05:47:53;20.95;;;10.90;;
40198;SDS011;25906;43.536;26.068;2023-05-29T05:50:38;18.23;;;11.13;;
40198;SDS011;25906;43.536;26.068;2023-05-29T05:53:24;18.80;;;11.55;;
40198;SDS011;25906;43.536;26.068;2023-05-29T05:56:09;18.35;;;11.10;;
40198;SDS011;25906;43.536;26.068;2023-05-29T05:58:55;16.10;;;11.60;;
40198;SDS011;25906;43.536;26.068;2023-05-29T06:04:26;20.67;;;10.52;;
40198;SDS011;25906;43.536;26.068;2023-05-29T06:07:12;22.50;;;11.77;;
40198;SDS011;25906;43.536;26.068;2023-05-29T06:09:57;19.75;;;11.38;;
40198;SDS011;25906;43.536;26.068;2023-05-29T06:12:43;19.63;;;11.23;;
40198;SDS011;25906;43.536;26.068;2023-05-29T06:15:28;23.77;;;11.82;;
40198;SDS011;25906;43.536;26.068;2023-05-29T06:18:13;26.10;;;12.32;;
40198;SDS011;25906;43.536;26.068;2023-05-29T06:20:59;17.80;;;11.93;;
40198;SDS011;25906;43.536;26.068;2023-05-29T06:23:45;18.48;;;12.15;;
40198;SDS011;25906;43.536;26.068;2023-05-29T06:26:30;17.08;;;11.77;;
40198;SDS011;25906;43.536;26.068;2023-05-29T06:29:16;20.40;;;11.88;;
40198;SDS011;25906;43.536;26.068;2023-05-29T06:32:01;22.25;;;12.07;;
40198;SDS011;25906;43.536;26.068;2023-05-29T06:34:46;19.35;;;11.88;;
40198;SDS011;25906;43.536;26.068;2023-05-29T06:37:32;19.45;;;12.98;;
40198;SDS011;25906;43.536;26.068;2023-05-29T06:40:17;22.45;;;12.93;;
40198;SDS011;25906;43.536;26.068;2023-05-29T06:43:03;21.20;;;13.45;;
40198;SDS011;25906;43.536;26.068;2023-05-29T06:45:48;21.95;;;13.15;;
40198;SDS011;25906;43.536;26.068;2023-05-29T06:48:34;19.30;;;13.50;;
40198;SDS011;25906;43.536;26.068;2023-05-29T06:51:20;19.75;;;13.07;;
40198;SDS011;25906;43.536;26.068;2023-05-29T06:54:05;25.38;;;12.38;;
40198;SDS011;25906;43.536;26.068;2023-05-29T06:56:51;18.10;;;12.15;;
40198;SDS011;25906;43.536;26.068;2023-05-29T06:59:38;18.13;;;12.10;;
40198;SDS011;25906;43.536;26.068;2023-05-29T07:02:23;18.63;;;12.02;;
40198;SDS011;25906;43.536;26.068;2023-05-29T07:05:09;17.05;;;11.52;;
40198;SDS011;25906;43.536;26.068;2023-05-29T07:07:54;18.98;;;12.20;;
40198;SDS011;25906;43.536;26.068;2023-05-29T07:10:40;17.48;;;10.65;;
40198;SDS011;25906;43.536;26.068;2023-05-29T07:13:25;19.95;;;11.75;;
40198;SDS011;25906;43.536;26.068;2023-05-29T07:16:12;16.52;;;11.95;;
40198;SDS011;25906;43.536;26.068;2023-05-29T07:18:57;20.40;;;12.45;;
40198;SDS011;25906;43.536;26.068;2023-05-29T07:21:42;18.38;;;11.43;;
40198;SDS011;25906;43.536;26.068;2023-05-29T07:24:28;15.35;;;11.57;;
40198;SDS011;25906;43.536;26.068;2023-05-29T07:27:13;15.98;;;11.43;;
40198;SDS011;25906;43.536;26.068;2023-05-29T07:29:58;17.77;;;11.52;;
40198;SDS011;25906;43.536;26.068;2023-05-29T07:32:44;23.05;;;12.40;;
40198;SDS011;25906;43.536;26.068;2023-05-29T07:35:30;15.05;;;11.38;;
40198;SDS011;25906;43.536;26.068;2023-05-29T07:38:17;17.02;;;11.77;;
40198;SDS011;25906;43.536;26.068;2023-05-29T07:41:03;18.10;;;12.90;;
40198;SDS011;25906;43.536;26.068;2023-05-29T07:43:49;17.55;;;12.52;;
40198;SDS011;25906;43.536;26.068;2023-05-29T07:46:37;17.42;;;11.65;;
40198;SDS011;25906;43.536;26.068;2023-05-29T07:49:22;19.65;;;11.70;;
40198;SDS011;25906;43.536;26.068;2023-05-29T07:52:08;19.23;;;11.90;;
40198;SDS011;25906;43.536;26.068;2023-05-29T07:54:53;18.45;;;12.07;;
40198;SDS011;25906;43.536;26.068;2023-05-29T07:57:38;20.58;;;11.90;;
40198;SDS011;25906;43.536;26.068;2023-05-29T08:00:24;19.70;;;12.68;;
40198;SDS011;25906;43.536;26.068;2023-05-29T08:03:09;18.20;;;12.93;;
40198;SDS011;25906;43.536;26.068;2023-05-29T08:05:55;17.73;;;12.85;;
40198;SDS011;25906;43.536;26.068;2023-05-29T08:08:41;19.52;;;13.25;;
40198;SDS011;25906;43.536;26.068;2023-05-29T08:11:27;19.80;;;12.93;;
40198;SDS011;25906;43.536;26.068;2023-05-29T08:14:13;17.42;;;13.07;;
40198;SDS011;25906;43.536;26.068;2023-05-29T08:17:00;17.23;;;12.63;;
40198;SDS011;25906;43.536;26.068;2023-05-29T08:19:45;17.23;;;12.70;;
40198;SDS011;25906;43.536;26.068;2023-05-29T08:22:32;17.67;;;12.20;;
40198;SDS011;25906;43.536;26.068;2023-05-29T08:25:18;18.30;;;12.68;;
40198;SDS011;25906;43.536;26.068;2023-05-29T08:28:04;19.13;;;13.45;;
40198;SDS011;25906;43.536;26.068;2023-05-29T08:30:49;17.63;;;13.10;;
40198;SDS011;25906;43.536;26.068;2023-05-29T08:36:21;20.30;;;13.70;;
40198;SDS011;25906;43.536;26.068;2023-05-29T08:39:07;20.65;;;14.02;;
40198;SDS011;25906;43.536;26.068;2023-05-29T08:41:59;23.80;;;13.60;;
40198;SDS011;25906;43.536;26.068;2023-05-29T08:44:50;19.38;;;13.27;;
40198;SDS011;25906;43.536;26.068;2023-05-29T08:47:42;22.05;;;13.27;;
40198;SDS011;25906;43.536;26.068;2023-05-29T08:53:14;22.23;;;13.07;;
40198;SDS011;25906;43.536;26.068;2023-05-29T08:56:04;17.80;;;13.52;;
40198;SDS011;25906;43.536;26.068;2023-05-29T08:58:50;16.13;;;12.90;;
40198;SDS011;25906;43.536;26.068;2023-05-29T09:01:37;24.13;;;14.45;;
40198;SDS011;25906;43.536;26.068;2023-05-29T09:04:24;16.92;;;12.77;;
40198;SDS011;25906;43.536;26.068;2023-05-29T09:07:09;16.52;;;12.57;;
40198;SDS011;25906;43.536;26.068;2023-05-29T09:09:54;18.25;;;12.93;;
40198;SDS011;25906;43.536;26.068;2023-05-29T09:12:40;22.02;;;11.57;;
40198;SDS011;25906;43.536;26.068;2023-05-29T09:15:26;15.52;;;11.00;;
40198;SDS011;25906;43.536;26.068;2023-05-29T09:18:12;17.27;;;12.02;;
40198;SDS011;25906;43.536;26.068;2023-05-29T09:20:58;15.40;;;11.25;;
40198;SDS011;25906;43.536;26.068;2023-05-29T09:23:43;18.83;;;12.30;;
40198;SDS011;25906;43.536;26.068;2023-05-29T09:26:29;17.80;;;13.52;;
40198;SDS011;25906;43.536;26.068;2023-05-29T09:32:00;15.13;;;11.27;;
40198;SDS011;25906;43.536;26.068;2023-05-29T09:34:46;19.52;;;11.63;;
40198;SDS011;25906;43.536;26.068;2023-05-29T09:37:32;18.63;;;11.00;;
40198;SDS011;25906;43.536;26.068;2023-05-29T09:40:17;12.13;;;10.32;;
40198;SDS011;25906;43.536;26.068;2023-05-29T09:43:16;12.98;;;10.32;;
40198;SDS011;25906;43.536;26.068;2023-05-29T09:46:03;14.60;;;9.65;;
40198;SDS011;25906;43.536;26.068;2023-05-29T09:48:51;15.10;;;9.77;;
40198;SDS011;25906;43.536;26.068;2023-05-29T09:51:37;18.08;;;11.65;;
40198;SDS011;25906;43.536;26.068;2023-05-29T09:54:22;22.35;;;13.65;;
40198;SDS011;25906;43.536;26.068;2023-05-29T09:57:08;18.77;;;13.20;;
40198;SDS011;25906;43.536;26.068;2023-05-29T09:59:54;17.67;;;12.75;;
40198;SDS011;25906;43.536;26.068;2023-05-29T10:02:40;18.02;;;12.90;;
40198;SDS011;25906;43.536;26.068;2023-05-29T10:05:25;18.30;;;13.52;;
40198;SDS011;25906;43.536;26.068;2023-05-29T10:08:14;15.65;;;12.50;;
40198;SDS011;25906;43.536;26.068;2023-05-29T10:11:02;16.80;;;13.07;;
40198;SDS011;25906;43.536;26.068;2023-05-29T10:13:49;18.98;;;13.02;;
40198;SDS011;25906;43.536;26.068;2023-05-29T10:16:39;18.50;;;12.50;;
40198;SDS011;25906;43.536;26.068;2023-05-29T10:19:29;17.67;;;13.25;;
40198;SDS011;25906;43.536;26.068;2023-05-29T10:22:18;16.52;;;12.45;;
40198;SDS011;25906;43.536;26.068;2023-05-29T10:25:10;26.77;;;14.80;;
40198;SDS011;25906;43.536;26.068;2023-05-29T10:27:57;15.85;;;12.40;;
40198;SDS011;25906;43.536;26.068;2023-05-29T10:30:45;19.75;;;11.80;;
40198;SDS011;25906;43.536;26.068;2023-05-29T10:36:55;14.88;;;10.90;;
40198;SDS011;25906;43.536;26.068;2023-05-29T10:39:47;17.05;;;9.57;;
40198;SDS011;25906;43.536;26.068;2023-05-29T10:42:46;12.93;;;9.07;;
40198;SDS011;25906;43.536;26.068;2023-05-29T10:51:29;12.23;;;9.40;;
40198;SDS011;25906;43.536;26.068;2023-05-29T10:54:16;15.75;;;9.45;;
40198;SDS011;25906;43.536;26.068;2023-05-29T10:57:04;13.50;;;9.60;;
40198;SDS011;25906;43.536;26.068;2023-05-29T10:59:57;14.07;;;10.38;;
40198;SDS011;25906;43.536;26.068;2023-05-29T11:02:44;13.60;;;10.27;;
40198;SDS011;25906;43.536;26.068;2023-05-29T11:05:31;11.95;;;9.80;;
40198;SDS011;25906;43.536;26.068;2023-05-29T11:08:16;13.60;;;10.18;;
40198;SDS011;25906;43.536;26.068;2023-05-29T11:11:15;17.13;;;9.98;;
40198;SDS011;25906;43.536;26.068;2023-05-29T11:14:13;15.85;;;10.23;;
40198;SDS011;25906;43.536;26.068;2023-05-29T11:16:59;12.18;;;9.02;;
40198;SDS011;25906;43.536;26.068;2023-05-29T11:19:44;10.95;;;8.63;;
40198;SDS011;25906;43.536;26.068;2023-05-29T11:22:41;11.77;;;9.05;;
40198;SDS011;25906;43.536;26.068;2023-05-29T11:25:41;13.48;;;10.07;;
40198;SDS011;25906;43.536;26.068;2023-05-29T11:28:29;14.00;;;10.23;;
40198;SDS011;25906;43.536;26.068;2023-05-29T11:31:15;16.63;;;11.23;;
40198;SDS011;25906;43.536;26.068;2023-05-29T11:34:02;19.38;;;11.40;;
40198;SDS011;25906;43.536;26.068;2023-05-29T11:36:50;14.27;;;10.45;;
40198;SDS011;25906;43.536;26.068;2023-05-29T11:39:37;15.52;;;11.48;;
40198;SDS011;25906;43.536;26.068;2023-05-29T11:42:23;17.27;;;11.18;;
40198;SDS011;25906;43.536;26.068;2023-05-29T11:45:12;13.18;;;10.23;;
40198;SDS011;25906;43.536;26.068;2023-05-29T11:48:01;13.55;;;9.68;;
40198;SDS011;25906;43.536;26.068;2023-05-29T11:50:48;8.35;;;7.45;;
40198;SDS011;25906;43.536;26.068;2023-05-29T11:53:33;8.70;;;6.43;;
40198;SDS011;25906;43.536;26.068;2023-05-29T11:56:19;7.53;;;4.50;;
40198;SDS011;25906;43.536;26.068;2023-05-29T11:59:05;6.45;;;5.57;;
40198;SDS011;25906;43.536;26.068;2023-05-29T12:01:56;8.00;;;5.07;;
40198;SDS011;25906;43.536;26.068;2023-05-29T12:04:41;7.35;;;5.38;;
40198;SDS011;25906;43.536;26.068;2023-05-29T12:07:26;7.22;;;4.40;;
40198;SDS011;25906;43.536;26.068;2023-05-29T12:10:12;4.55;;;3.83;;
40198;SDS011;25906;43.536;26.068;2023-05-29T12:12:59;4.80;;;4.30;;
40198;SDS011;25906;43.536;26.068;2023-05-29T12:15:48;6.68;;;4.60;;
40198;SDS011;25906;43.536;26.068;2023-05-29T12:18:35;9.35;;;4.70;;
40198;SDS011;25906;43.536;26.068;2023-05-29T12:24:07;5.43;;;4.27;;
40198;SDS011;25906;43.536;26.068;2023-05-29T12:26:52;4.20;;;3.72;;
40198;SDS011;25906;43.536;26.068;2023-05-29T12:29:38;5.10;;;3.90;;
40198;SDS011;25906;43.536;26.068;2023-05-29T12:32:23;6.05;;;3.95;;
40198;SDS011;25906;43.536;26.068;2023-05-29T12:38:07;5.13;;;4.25;;
40198;SDS011;25906;43.536;26.068;2023-05-29T12:40:56;7.10;;;4.22;;
40198;SDS011;25906;43.536;26.068;2023-05-29T12:43:42;4.90;;;4.40;;
40198;SDS011;25906;43.536;26.068;2023-05-29T12:46:27;6.57;;;4.10;;
40198;SDS011;25906;43.536;26.068;2023-05-29T12:49:13;7.38;;;4.40;;
40198;SDS011;25906;43.536;26.068;2023-05-29T12:52:06;7.78;;;4.15;;
40198;SDS011;25906;43.536;26.068;2023-05-29T12:54:52;4.65;;;4.18;;
40198;SDS011;25906;43.536;26.068;2023-05-29T12:57:38;7.93;;;3.80;;
40198;SDS011;25906;43.536;26.068;2023-05-29T13:00:24;5.68;;;4.20;;
40198;SDS011;25906;43.536;26.068;2023-05-29T13:03:10;4.38;;;3.92;;
40198;SDS011;25906;43.536;26.068;2023-05-29T13:05:56;7.00;;;4.82;;
40198;SDS011;25906;43.536;26.068;2023-05-29T13:08:41;8.90;;;4.68;;
40198;SDS011;25906;43.536;26.068;2023-05-29T13:11:27;5.07;;;4.55;;
40198;SDS011;25906;43.536;26.068;2023-05-29T13:14:12;5.43;;;4.43;;
40198;SDS011;25906;43.536;26.068;2023-05-29T13:16:57;6.22;;;4.55;;
40198;SDS011;25906;43.536;26.068;2023-05-29T13:19:43;6.55;;;5.07;;
40198;SDS011;25906;43.536;26.068;2023-05-29T13:22:28;4.85;;;4.35;;
40198;SDS011;25906;43.536;26.068;2023-05-29T13:25:17;6.47;;;4.57;;
40198;SDS011;25906;43.536;26.068;2023-05-29T13:28:05;5.25;;;4.57;;
40198;SDS011;25906;43.536;26.068;2023-05-29T13:30:50;6.25;;;4.90;;
40198;SDS011;25906;43.536;26.068;2023-05-29T13:33:36;4.93;;;4.30;;
40198;SDS011;25906;43.536;26.068;2023-05-29T13:36:21;7.97;;;4.53;;
40198;SDS011;25906;43.536;26.068;2023-05-29T13:41:52;6.47;;;4.68;;
40198;SDS011;25906;43.536;26.068;2023-05-29T13:44:38;9.68;;;5.75;;
40198;SDS011;25906;43.536;26.068;2023-05-29T13:47:23;8.60;;;5.15;;
40198;SDS011;25906;43.536;26.068;2023-05-29T13:50:09;10.95;;;5.47;;
40198;SDS011;25906;43.536;26.068;2023-05-29T13:52:54;8.93;;;5.70;;
40198;SDS011;25906;43.536;26.068;2023-05-29T13:55:40;8.70;;;5.53;;
40198;SDS011;25906;43.536;26.068;2023-05-29T13:58:25;8.02;;;4.88;;
40198;SDS011;25906;43.536;26.068;2023-05-29T14:01:10;9.00;;;5.65;;
40198;SDS011;25906;43.536;26.068;2023-05-29T14:03:56;10.10;;;5.60;;
40198;SDS011;25906;43.536;26.068;2023-05-29T14:06:41;10.45;;;5.82;;
40198;SDS011;25906;43.536;26.068;2023-05-29T14:09:27;8.02;;;5.07;;
40198;SDS011;25906;43.536;26.068;2023-05-29T14:14:58;7.70;;;5.45;;
40198;SDS011;25906;43.536;26.068;2023-05-29T14:17:43;9.82;;;5.35;;
40198;SDS011;25906;43.536;26.068;2023-05-29T14:20:28;9.02;;;5.55;;
40198;SDS011;25906;43.536;26.068;2023-05-29T14:23:16;8.70;;;5.07;;
40198;SDS011;25906;43.536;26.068;2023-05-29T14:26:02;8.70;;;4.93;;
40198;SDS011;25906;43.536;26.068;2023-05-29T14:28:47;10.13;;;5.32;;
40198;SDS011;25906;43.536;26.068;2023-05-29T14:31:33;8.20;;;5.28;;
40198;SDS011;25906;43.536;26.068;2023-05-29T14:34:18;5.22;;;4.72;;
40198;SDS011;25906;43.536;26.068;2023-05-29T14:37:03;7.53;;;5.20;;
40198;SDS011;25906;43.536;26.068;2023-05-29T14:39:49;8.23;;;5.13;;
40198;SDS011;25906;43.536;26.068;2023-05-29T14:42:34;8.25;;;5.18;;
40198;SDS011;25906;43.536;26.068;2023-05-29T14:45:20;8.77;;;5.28;;
40198;SDS011;25906;43.536;26.068;2023-05-29T14:48:05;7.07;;;5.10;;
40198;SDS011;25906;43.536;26.068;2023-05-29T14:50:51;6.57;;;5.07;;
40198;SDS011;25906;43.536;26.068;2023-05-29T14:53:36;6.43;;;4.97;;
40198;SDS011;25906;43.536;26.068;2023-05-29T14:56:23;8.73;;;4.97;;
40198;SDS011;25906;43.536;26.068;2023-05-29T14:59:08;8.38;;;5.07;;
40198;SDS011;25906;43.536;26.068;2023-05-29T15:01:54;6.78;;;4.85;;
40198;SDS011;25906;43.536;26.068;2023-05-29T15:04:39;8.23;;;4.82;;
40198;SDS011;25906;43.536;26.068;2023-05-29T15:07:25;9.05;;;5.55;;
40198;SDS011;25906;43.536;26.068;2023-05-29T15:10:10;7.82;;;4.80;;
40198;SDS011;25906;43.536;26.068;2023-05-29T15:12:56;7.65;;;5.40;;
40198;SDS011;25906;43.536;26.068;2023-05-29T15:15:44;7.25;;;4.80;;
40198;SDS011;25906;43.536;26.068;2023-05-29T15:18:30;7.38;;;5.28;;
40198;SDS011;25906;43.536;26.068;2023-05-29T15:21:15;8.27;;;5.53;;
40198;SDS011;25906;43.536;26.068;2023-05-29T15:24:01;8.57;;;5.95;;
40198;SDS011;25906;43.536;26.068;2023-05-29T15:26:46;7.93;;;6.05;;
40198;SDS011;25906;43.536;26.068;2023-05-29T15:29:35;7.18;;;5.63;;
40198;SDS011;25906;43.536;26.068;2023-05-29T15:32:21;8.05;;;5.78;;
40198;SDS011;25906;43.536;26.068;2023-05-29T15:35:07;8.07;;;5.70;;
40198;SDS011;25906;43.536;26.068;2023-05-29T15:37:53;9.27;;;6.13;;
40198;SDS011;25906;43.536;26.068;2023-05-29T15:40:39;7.35;;;5.90;;
40198;SDS011;25906;43.536;26.068;2023-05-29T15:43:27;8.70;;;6.05;;
40198;SDS011;25906;43.536;26.068;2023-05-29T15:46:13;8.23;;;5.95;;
40198;SDS011;25906;43.536;26.068;2023-05-29T15:48:59;9.63;;;6.07;;
40198;SDS011;25906;43.536;26.068;2023-05-29T15:51:45;9.95;;;6.40;;
40198;SDS011;25906;43.536;26.068;2023-05-29T15:57:15;8.65;;;6.10;;
40198;SDS011;25906;43.536;26.068;2023-05-29T16:00:01;9.40;;;6.35;;
40198;SDS011;25906;43.536;26.068;2023-05-29T16:02:47;10.45;;;6.03;;
40198;SDS011;25906;43.536;26.068;2023-05-29T16:05:35;11.18;;;6.15;;
40198;SDS011;25906;43.536;26.068;2023-05-29T16:08:21;7.80;;;6.15;;
40198;SDS011;25906;43.536;26.068;2023-05-29T16:11:06;11.88;;;6.13;;
40198;SDS011;25906;43.536;26.068;2023-05-29T16:13:51;9.02;;;6.47;;
40198;SDS011;25906;43.536;26.068;2023-05-29T16:16:37;11.32;;;7.28;;
40198;SDS011;25906;43.536;26.068;2023-05-29T16:19:22;11.25;;;7.32;;
40198;SDS011;25906;43.536;26.068;2023-05-29T16:22:08;10.55;;;7.22;;
40198;SDS011;25906;43.536;26.068;2023-05-29T16:24:53;12.65;;;6.95;;
40198;SDS011;25906;43.536;26.068;2023-05-29T16:27:39;12.77;;;6.95;;
40198;SDS011;25906;43.536;26.068;2023-05-29T16:30:24;15.25;;;7.35;;
40198;SDS011;25906;43.536;26.068;2023-05-29T16:33:10;8.93;;;7.13;;
40198;SDS011;25906;43.536;26.068;2023-05-29T16:35:57;9.90;;;7.30;;
40198;SDS011;25906;43.536;26.068;2023-05-29T16:38:42;10.55;;;7.18;;
40198;SDS011;25906;43.536;26.068;2023-05-29T16:41:28;9.48;;;7.45;;
40198;SDS011;25906;43.536;26.068;2023-05-29T16:44:13;12.35;;;7.80;;
40198;SDS011;25906;43.536;26.068;2023-05-29T16:46:58;11.77;;;6.72;;
40198;SDS011;25906;43.536;26.068;2023-05-29T16:49:44;9.80;;;7.30;;
40198;SDS011;25906;43.536;26.068;2023-05-29T16:52:30;15.52;;;11.70;;
40198;SDS011;25906;43.536;26.068;2023-05-29T16:55:15;12.27;;;9.02;;
40198;SDS011;25906;43.536;26.068;2023-05-29T16:58:01;8.63;;;6.82;;
40198;SDS011;25906;43.536;26.068;2023-05-29T17:00:46;10.40;;;7.60;;
40198;SDS011;25906;43.536;26.068;2023-05-29T17:06:19;10.18;;;7.20;;
40198;SDS011;25906;43.536;26.068;2023-05-29T17:09:04;9.80;;;7.03;;